Algona, Iowa
Current Conditions -  °F | °C
As of 9:55 PM on Sunday 21 Dec 2014 (Local Time) from KAXA Reporting Station
Haze Haze  
Wind Chill: 29°   Ceiling: 300
Heat Index: 39°   Visibility: 2.5mi
Dew Point: 37°   Wind: 21mph
Humidity: 93%   Direction: 170°S
Pressure: 29.69"   Gusts: 26mph
Location:  43.07°N, 94.23°W
Report Text: KAXA 220355Z AUTO 17018G23KT 2 1/2SM BR OVC003 04/03 A2969 RMK AO2
Loading
Personal Weather Stations






























Interactive Weather Map New forecast layout! Learn more

10-Day Weather Forecast

Advertisements
Track Severe Weather on mobile